createdAt,value
2017-11-27T00:00:49.933Z,1010.88
2017-11-27T00:01:51.351Z,1010.91
2017-11-27T00:02:52.752Z,1010.86
2017-11-27T00:03:54.163Z,1010.86
2017-11-27T00:04:55.579Z,1010.85
2017-11-27T00:05:56.999Z,1010.85
2017-11-27T00:06:58.417Z,1010.82
2017-11-27T00:07:59.835Z,1010.80
2017-11-27T00:09:01.243Z,1010.76
2017-11-27T00:10:02.647Z,1010.65
2017-11-27T00:11:04.061Z,1010.66
2017-11-27T00:12:05.478Z,1010.71
2017-11-27T00:13:06.890Z,1010.63
2017-11-27T00:14:08.300Z,1010.72
2017-11-27T00:15:09.708Z,1010.65
2017-11-27T00:16:11.123Z,1010.63
2017-11-27T00:17:12.539Z,1010.69
2017-11-27T00:18:13.956Z,1010.64
2017-11-27T00:19:15.450Z,1010.68
2017-11-27T00:20:16.867Z,1010.70
2017-11-27T00:21:18.285Z,1010.74
2017-11-27T00:22:19.700Z,1010.75
2017-11-27T00:23:21.116Z,1010.78
2017-11-27T00:24:22.525Z,1010.79
2017-11-27T00:25:23.938Z,1010.79
2017-11-27T00:26:25.462Z,1010.82
2017-11-27T00:27:26.882Z,1010.84
2017-11-27T00:28:28.300Z,1010.84
2017-11-27T00:29:29.708Z,1010.78
2017-11-27T00:30:31.140Z,1010.82
2017-11-27T00:31:32.561Z,1010.78
2017-11-27T00:32:33.983Z,1010.80
2017-11-27T00:33:35.381Z,1010.86
2017-11-27T00:34:36.797Z,1010.85
2017-11-27T00:35:38.223Z,1010.81
2017-11-27T00:36:39.617Z,1010.76
2017-11-27T00:37:41.026Z,1010.75
2017-11-27T00:38:42.451Z,1010.74
2017-11-27T00:39:43.859Z,1010.64
2017-11-27T00:40:45.271Z,1010.66
2017-11-27T00:41:46.681Z,1010.66
2017-11-27T00:42:48.100Z,1010.66
2017-11-27T00:43:49.515Z,1010.66
2017-11-27T00:44:50.935Z,1010.61
2017-11-27T00:45:52.339Z,1010.57
2017-11-27T00:46:53.747Z,1010.60
2017-11-27T00:47:55.156Z,1010.51
2017-11-27T00:48:56.568Z,1010.50
2017-11-27T00:49:57.985Z,1010.46
2017-11-27T00:50:59.396Z,1010.45
2017-11-27T00:52:00.812Z,1010.51
2017-11-27T00:53:02.224Z,1010.49
2017-11-27T00:54:03.629Z,1010.48
2017-11-27T00:55:05.041Z,1010.43
2017-11-27T00:56:06.473Z,1010.43
2017-11-27T00:57:07.893Z,1010.50
2017-11-27T00:58:09.311Z,1010.52
2017-11-27T00:59:10.723Z,1010.56
2017-11-27T01:00:12.131Z,1010.54
2017-11-27T01:01:13.540Z,1010.55
2017-11-27T01:02:14.956Z,1010.73
2017-11-27T01:03:16.362Z,1010.73
2017-11-27T01:04:17.774Z,1010.68
2017-11-27T01:05:19.184Z,1010.66
2017-11-27T01:06:20.593Z,1010.69
2017-11-27T01:07:22.001Z,1010.68
2017-11-27T01:08:23.411Z,1010.59
2017-11-27T01:09:24.921Z,1010.62
2017-11-27T01:10:26.333Z,1010.63
2017-11-27T01:11:27.750Z,1010.63
2017-11-27T01:12:29.175Z,1010.61
2017-11-27T01:13:30.587Z,1010.48
2017-11-27T01:14:31.996Z,1010.56
2017-11-27T01:15:33.394Z,1010.46
2017-11-27T01:16:34.820Z,1010.54
2017-11-27T01:17:36.233Z,1010.60
2017-11-27T01:18:37.720Z,1010.57
2017-11-27T01:19:39.125Z,1010.63
2017-11-27T01:20:40.546Z,1010.65
2017-11-27T01:21:41.955Z,1010.56
2017-11-27T01:22:43.365Z,1010.59
2017-11-27T01:23:44.770Z,1010.58
2017-11-27T01:24:46.180Z,1010.58
2017-11-27T01:25:47.592Z,1010.55
2017-11-27T01:26:49.016Z,1010.59
2017-11-27T01:27:50.441Z,1010.56
2017-11-27T01:28:51.859Z,1010.66
2017-11-27T01:29:53.270Z,1010.70
2017-11-27T01:30:54.680Z,1010.59
2017-11-27T01:31:56.100Z,1010.62
2017-11-27T01:32:57.509Z,1010.65
2017-11-27T01:33:58.911Z,1010.60
2017-11-27T01:35:00.457Z,1010.57
2017-11-27T01:36:01.864Z,1010.60
2017-11-27T01:37:03.276Z,1010.54
2017-11-27T01:38:04.690Z,1010.52
2017-11-27T01:39:06.089Z,1010.49
2017-11-27T01:40:07.504Z,1010.51
2017-11-27T01:41:08.911Z,1010.54
2017-11-27T01:42:10.323Z,1010.54
2017-11-27T01:43:11.740Z,1010.55
2017-11-27T01:44:13.150Z,1010.55
2017-11-27T01:45:14.561Z,1010.58
2017-11-27T01:46:15.980Z,1010.56
2017-11-27T01:47:17.401Z,1010.54
2017-11-27T01:48:18.812Z,1010.55
2017-11-27T01:49:20.223Z,1010.56
2017-11-27T01:50:21.630Z,1010.52
2017-11-27T01:51:23.052Z,1010.51
2017-11-27T01:52:24.452Z,1010.47
2017-11-27T01:53:25.863Z,1010.47
2017-11-27T01:54:27.268Z,1010.44
2017-11-27T01:55:28.684Z,1010.43
2017-11-27T01:56:30.101Z,1010.39
2017-11-27T01:57:31.516Z,1010.42
2017-11-27T01:58:32.927Z,1010.33
2017-11-27T01:59:34.341Z,1010.42
2017-11-27T02:00:35.751Z,1010.43
2017-11-27T02:01:37.158Z,1010.43
2017-11-27T02:02:38.567Z,1010.41
2017-11-27T02:03:39.978Z,1010.46
2017-11-27T02:04:41.388Z,1010.48
2017-11-27T02:05:42.818Z,1010.44
2017-11-27T02:06:44.218Z,1010.43
2017-11-27T02:07:45.672Z,1010.42
2017-11-27T02:08:47.083Z,1010.41
2017-11-27T02:09:48.490Z,1010.41
2017-11-27T02:10:49.906Z,1010.38
2017-11-27T02:11:51.312Z,1010.40
2017-11-27T02:12:52.723Z,1010.38
2017-11-27T02:13:54.146Z,1010.32
2017-11-27T02:14:55.562Z,1010.36
2017-11-27T02:15:56.968Z,1010.44
2017-11-27T02:16:58.379Z,1010.44
2017-11-27T02:17:59.789Z,1010.37
2017-11-27T02:19:01.199Z,1010.36
2017-11-27T02:20:02.614Z,1010.36
2017-11-27T02:21:04.026Z,1010.38
2017-11-27T02:22:05.439Z,1010.43
2017-11-27T02:23:06.843Z,1010.39
2017-11-27T02:24:08.259Z,1010.38
2017-11-27T02:25:09.659Z,1010.31
2017-11-27T02:26:11.083Z,1010.28
2017-11-27T02:27:12.492Z,1010.25
2017-11-27T02:28:13.909Z,1010.24
2017-11-27T02:29:15.319Z,1010.26
2017-11-27T02:30:16.731Z,1010.25
2017-11-27T02:31:18.139Z,1010.22
2017-11-27T02:32:19.549Z,1010.21
2017-11-27T02:33:20.980Z,1010.23
2017-11-27T02:34:22.389Z,1010.22
2017-11-27T02:35:23.803Z,1010.15
2017-11-27T02:36:25.217Z,1010.13
2017-11-27T02:37:26.632Z,1010.17
2017-11-27T02:38:28.109Z,1010.15
2017-11-27T02:39:29.527Z,1010.16
2017-11-27T02:40:30.941Z,1010.20
2017-11-27T02:41:32.350Z,1010.15
2017-11-27T02:42:33.761Z,1010.17
2017-11-27T02:43:35.170Z,1010.16
2017-11-27T02:44:36.551Z,1010.10
2017-11-27T02:45:37.952Z,1010.12
2017-11-27T02:46:39.363Z,1010.08
2017-11-27T02:47:40.768Z,1010.08
2017-11-27T02:48:42.179Z,1010.15
2017-11-27T02:49:43.587Z,1010.06
2017-11-27T02:50:45.006Z,1010.05
2017-11-27T02:51:46.427Z,1010.05
2017-11-27T02:52:47.831Z,1010.09
2017-11-27T02:53:49.234Z,1010.04
2017-11-27T02:54:50.644Z,1010.05
2017-11-27T02:55:52.057Z,1010.09
2017-11-27T02:56:53.476Z,1010.09
2017-11-27T02:57:54.891Z,1010.02
2017-11-27T02:58:56.305Z,1010.05
2017-11-27T02:59:57.719Z,1010.11
2017-11-27T03:00:59.135Z,1010.08
2017-11-27T03:02:00.543Z,1010.02
2017-11-27T03:03:01.942Z,1010.04
2017-11-27T03:04:03.346Z,1010.03
2017-11-27T03:05:04.765Z,1009.94
2017-11-27T03:06:06.183Z,1009.93
2017-11-27T03:07:07.599Z,1009.98
2017-11-27T03:08:09.010Z,1010.04
2017-11-27T03:09:10.541Z,1009.97
2017-11-27T03:10:11.974Z,1010.01
2017-11-27T03:11:13.385Z,1009.90
2017-11-27T03:12:14.798Z,1009.96
2017-11-27T03:13:16.212Z,1009.96
2017-11-27T03:14:17.621Z,1009.94
2017-11-27T03:15:19.027Z,1009.93
2017-11-27T03:16:20.451Z,1009.89
2017-11-27T03:17:21.857Z,1009.93
2017-11-27T03:18:23.266Z,1009.91
2017-11-27T03:19:24.678Z,1009.88
2017-11-27T03:20:26.085Z,1009.87
2017-11-27T03:21:27.502Z,1009.86
2017-11-27T03:22:28.909Z,1009.77
2017-11-27T03:23:30.325Z,1009.78
2017-11-27T03:24:31.727Z,1009.78
2017-11-27T03:25:33.150Z,1009.79
2017-11-27T03:26:34.556Z,1009.69
2017-11-27T03:27:35.977Z,1009.74
2017-11-27T03:28:37.392Z,1009.67
2017-11-27T03:29:38.799Z,1009.68
2017-11-27T03:30:40.212Z,1009.65
2017-11-27T03:31:41.635Z,1009.66
2017-11-27T03:32:43.043Z,1009.60
2017-11-27T03:33:44.453Z,1009.63
2017-11-27T03:34:45.860Z,1009.62
2017-11-27T03:35:47.276Z,1009.59
2017-11-27T03:36:48.687Z,1009.62
2017-11-27T03:37:50.099Z,1009.58
2017-11-27T03:38:51.520Z,1009.63
2017-11-27T03:39:52.936Z,1009.56
2017-11-27T03:40:54.344Z,1009.52
2017-11-27T03:41:55.752Z,1009.54
2017-11-27T03:42:57.164Z,1009.50
2017-11-27T03:43:58.576Z,1009.46
2017-11-27T03:44:59.995Z,1009.48
2017-11-27T03:46:01.400Z,1009.51
2017-11-27T03:47:02.811Z,1009.49
2017-11-27T03:48:04.217Z,1009.49
2017-11-27T03:49:05.641Z,1009.49
2017-11-27T03:50:07.045Z,1009.45
2017-11-27T03:51:08.464Z,1009.41
2017-11-27T03:52:09.863Z,1009.39
2017-11-27T03:53:11.284Z,1009.39
2017-11-27T03:54:12.689Z,1009.40
2017-11-27T03:55:14.110Z,1009.33
2017-11-27T03:56:15.516Z,1009.35
2017-11-27T03:57:16.929Z,1009.32
2017-11-27T03:58:18.342Z,1009.29
2017-11-27T03:59:19.852Z,1009.28
2017-11-27T04:00:21.264Z,1009.30
2017-11-27T04:01:22.709Z,1009.30
2017-11-27T04:02:24.121Z,1009.26
2017-11-27T04:03:25.529Z,1009.33
2017-11-27T04:04:26.941Z,1009.29
2017-11-27T04:05:28.350Z,1009.30
2017-11-27T04:06:30.718Z,1009.24
2017-11-27T04:07:32.131Z,1009.21
2017-11-27T04:08:33.541Z,1009.26
2017-11-27T04:09:34.954Z,1009.26
2017-11-27T04:10:36.361Z,1009.20
2017-11-27T04:11:37.773Z,1009.09
2017-11-27T04:12:39.187Z,1009.15
2017-11-27T04:13:40.597Z,1009.11
2017-11-27T04:14:42.010Z,1009.11
2017-11-27T04:15:43.426Z,1009.11
2017-11-27T04:16:44.835Z,1009.12
2017-11-27T04:17:46.254Z,1009.12
2017-11-27T04:18:47.675Z,1009.02
2017-11-27T04:19:49.082Z,1009.03
2017-11-27T04:20:50.497Z,1008.98
2017-11-27T04:21:51.895Z,1009.02
2017-11-27T04:22:53.307Z,1008.97
2017-11-27T04:23:54.741Z,1008.94
2017-11-27T04:24:56.154Z,1009.02
2017-11-27T04:25:57.573Z,1008.96
2017-11-27T04:26:58.977Z,1009.03
2017-11-27T04:28:00.392Z,1008.96
2017-11-27T04:29:01.797Z,1008.97
2017-11-27T04:30:03.214Z,1008.99
2017-11-27T04:31:04.628Z,1008.90
2017-11-27T04:32:06.038Z,1008.92
2017-11-27T04:33:07.461Z,1008.92
2017-11-27T04:34:08.877Z,1008.95
2017-11-27T04:35:10.299Z,1008.90
2017-11-27T04:36:11.712Z,1008.90
2017-11-27T04:37:13.130Z,1008.91
2017-11-27T04:38:14.549Z,1008.89
2017-11-27T04:39:15.962Z,1008.92
2017-11-27T04:40:17.372Z,1008.86
2017-11-27T04:41:18.774Z,1008.90
2017-11-27T04:42:20.191Z,1008.83
2017-11-27T04:43:21.607Z,1008.77
2017-11-27T04:44:23.014Z,1008.80
2017-11-27T04:45:24.427Z,1008.75
2017-11-27T04:46:25.831Z,1008.82
2017-11-27T04:47:27.293Z,1008.79
2017-11-27T04:48:28.698Z,1008.87
2017-11-27T04:49:30.114Z,1008.82
2017-11-27T04:50:31.521Z,1008.78
2017-11-27T04:51:32.936Z,1008.83
2017-11-27T04:52:34.348Z,1008.78
2017-11-27T04:53:35.758Z,1008.83
2017-11-27T04:54:37.174Z,1008.81
2017-11-27T04:55:38.596Z,1008.81
2017-11-27T04:56:40.014Z,1008.76
2017-11-27T04:57:41.434Z,1008.76
2017-11-27T04:58:42.856Z,1008.76
2017-11-27T04:59:44.259Z,1008.73
2017-11-27T05:00:45.672Z,1008.73
2017-11-27T05:01:47.076Z,1008.64
2017-11-27T05:02:48.483Z,1008.65
2017-11-27T05:03:49.896Z,1008.59
2017-11-27T05:04:51.302Z,1008.61
2017-11-27T05:05:52.703Z,1008.58
2017-11-27T05:06:54.109Z,1008.58
2017-11-27T05:07:55.527Z,1008.61
2017-11-27T05:08:56.946Z,1008.52
2017-11-27T05:09:58.355Z,1008.50
2017-11-27T05:10:59.826Z,1008.53
2017-11-27T05:12:01.176Z,1008.48
2017-11-27T05:13:02.588Z,1008.50
2017-11-27T05:14:04.000Z,1008.55
2017-11-27T05:15:05.464Z,1008.48
2017-11-27T05:16:06.884Z,1008.49
2017-11-27T05:17:08.291Z,1008.42
2017-11-27T05:18:09.702Z,1008.48
2017-11-27T05:19:11.112Z,1008.43
2017-11-27T05:20:12.529Z,1008.38
2017-11-27T05:21:13.931Z,1008.38
2017-11-27T05:22:15.341Z,1008.35
2017-11-27T05:23:16.750Z,1008.35
2017-11-27T05:24:18.160Z,1008.34
2017-11-27T05:25:19.580Z,1008.30
2017-11-27T05:26:20.984Z,1008.32
2017-11-27T05:27:22.398Z,1008.31
2017-11-27T05:28:23.820Z,1008.22
2017-11-27T05:29:25.233Z,1008.20
2017-11-27T05:30:26.638Z,1008.22
2017-11-27T05:31:28.051Z,1008.13
2017-11-27T05:32:29.473Z,1008.23
2017-11-27T05:33:30.876Z,1008.18
2017-11-27T05:34:32.402Z,1008.20
2017-11-27T05:35:33.813Z,1008.15
2017-11-27T05:36:35.232Z,1008.21
2017-11-27T05:37:36.642Z,1008.20
2017-11-27T05:38:38.050Z,1008.21
2017-11-27T05:39:39.460Z,1008.21
2017-11-27T05:40:40.868Z,1008.10
2017-11-27T05:41:42.286Z,1008.06
2017-11-27T05:42:43.692Z,1008.05
2017-11-27T05:43:45.104Z,1008.07
2017-11-27T05:44:46.510Z,1008.06
2017-11-27T05:45:47.916Z,1007.97
2017-11-27T05:46:49.319Z,1007.99
2017-11-27T05:47:50.733Z,1008.04
2017-11-27T05:48:52.142Z,1008.03
2017-11-27T05:49:53.551Z,1008.03
2017-11-27T05:50:54.965Z,1008.01
2017-11-27T05:51:56.382Z,1007.98
2017-11-27T05:52:57.809Z,1007.92
2017-11-27T05:53:59.223Z,1007.95
2017-11-27T05:55:00.632Z,1007.87
2017-11-27T05:56:02.045Z,1007.87
2017-11-27T05:57:03.456Z,1007.87
2017-11-27T05:58:04.878Z,1007.83
2017-11-27T05:59:06.300Z,1007.76
2017-11-27T06:00:07.868Z,1007.73
2017-11-27T06:01:09.278Z,1007.70
2017-11-27T06:02:10.700Z,1007.80
2017-11-27T06:03:12.114Z,1007.80
2017-11-27T06:04:13.516Z,1007.73
2017-11-27T06:05:14.921Z,1007.69
2017-11-27T06:06:16.332Z,1007.74
2017-11-27T06:07:17.827Z,1007.74
2017-11-27T06:08:19.228Z,1007.67
2017-11-27T06:09:20.632Z,1007.67
2017-11-27T06:10:22.041Z,1007.64
2017-11-27T06:11:23.452Z,1007.54
2017-11-27T06:12:24.869Z,1007.57
2017-11-27T06:13:26.282Z,1007.59
2017-11-27T06:14:27.690Z,1007.57
2017-11-27T06:15:29.105Z,1007.59
2017-11-27T06:16:30.521Z,1007.47
2017-11-27T06:17:31.931Z,1007.50
2017-11-27T06:18:33.349Z,1007.43
2017-11-27T06:19:34.760Z,1007.42
2017-11-27T06:20:36.165Z,1007.41
2017-11-27T06:21:37.566Z,1007.38
2017-11-27T06:22:38.979Z,1007.45
2017-11-27T06:23:40.391Z,1007.36
2017-11-27T06:24:41.801Z,1007.39
2017-11-27T06:25:43.224Z,1007.35
2017-11-27T06:26:44.667Z,1007.29
2017-11-27T06:27:46.089Z,1007.31
2017-11-27T06:28:47.503Z,1007.21
2017-11-27T06:29:48.917Z,1007.30
2017-11-27T06:30:50.350Z,1007.18
2017-11-27T06:31:51.743Z,1007.24
2017-11-27T06:32:53.153Z,1007.19
2017-11-27T06:33:54.560Z,1007.17
2017-11-27T06:34:55.970Z,1007.20
2017-11-27T06:35:57.376Z,1007.20
2017-11-27T06:36:58.821Z,1007.20
2017-11-27T06:38:00.236Z,1007.10
2017-11-27T06:39:01.648Z,1007.16
2017-11-27T06:40:03.073Z,1007.15
2017-11-27T06:41:04.481Z,1007.02
2017-11-27T06:42:05.896Z,1007.05
2017-11-27T06:43:07.309Z,1007.03
2017-11-27T06:44:08.718Z,1007.07
2017-11-27T06:45:10.145Z,1007.08
2017-11-27T06:46:11.552Z,1007.00
2017-11-27T06:47:12.968Z,1007.10
2017-11-27T06:48:14.376Z,1007.03
2017-11-27T06:49:16.435Z,1006.96
2017-11-27T06:50:17.860Z,1006.97
2017-11-27T06:51:19.262Z,1006.95
2017-11-27T06:52:20.678Z,1006.88
2017-11-27T06:53:22.094Z,1006.83
2017-11-27T06:54:23.508Z,1006.92
2017-11-27T06:55:24.928Z,1006.87
2017-11-27T06:56:26.340Z,1006.93
2017-11-27T06:57:27.749Z,1006.76
2017-11-27T06:58:29.170Z,1006.74
2017-11-27T06:59:30.579Z,1006.84
2017-11-27T07:00:31.993Z,1006.78
2017-11-27T07:01:33.401Z,1006.76
2017-11-27T07:02:34.823Z,1006.71
2017-11-27T07:03:36.233Z,1006.68
2017-11-27T07:04:37.643Z,1006.77
2017-11-27T07:05:39.062Z,1006.71
2017-11-27T07:06:40.476Z,1006.67
2017-11-27T07:07:41.895Z,1006.72
2017-11-27T07:08:43.301Z,1006.74
2017-11-27T07:09:44.715Z,1006.74
2017-11-27T07:10:46.117Z,1006.65
2017-11-27T07:11:47.531Z,1006.70
2017-11-27T07:12:48.938Z,1006.66
2017-11-27T07:13:50.346Z,1006.58
2017-11-27T07:14:51.767Z,1006.64
2017-11-27T07:15:53.180Z,1006.51
2017-11-27T07:16:54.589Z,1006.55
2017-11-27T07:17:56.002Z,1006.51
2017-11-27T07:18:57.408Z,1006.50
2017-11-27T07:19:58.829Z,1006.56
2017-11-27T07:21:00.236Z,1006.48
2017-11-27T07:22:01.650Z,1006.47
2017-11-27T07:23:03.061Z,1006.46
2017-11-27T07:24:04.473Z,1006.44
2017-11-27T07:25:05.885Z,1006.41
2017-11-27T07:26:07.300Z,1006.39
2017-11-27T07:27:08.717Z,1006.45
2017-11-27T07:28:10.127Z,1006.29
2017-11-27T07:29:11.538Z,1006.24
2017-11-27T07:30:12.949Z,1006.35
2017-11-27T07:31:14.423Z,1006.37
2017-11-27T07:32:15.834Z,1006.35
2017-11-27T07:33:17.266Z,1006.31
2017-11-27T07:34:18.653Z,1006.29
2017-11-27T07:35:20.066Z,1006.28
2017-11-27T07:36:21.484Z,1006.18
2017-11-27T07:37:22.885Z,1006.24
2017-11-27T07:38:24.307Z,1006.26
2017-11-27T07:39:25.711Z,1006.32
2017-11-27T07:40:27.126Z,1006.31
2017-11-27T07:41:28.527Z,1006.19
2017-11-27T07:42:29.942Z,1006.15
2017-11-27T07:43:31.385Z,1006.17
2017-11-27T07:44:32.797Z,1006.26
2017-11-27T07:45:34.216Z,1006.10
2017-11-27T07:46:35.633Z,1006.14
2017-11-27T07:47:37.039Z,1006.07
2017-11-27T07:48:38.463Z,1006.04
2017-11-27T07:49:39.870Z,1006.02
2017-11-27T07:50:41.280Z,1006.02
2017-11-27T07:51:42.697Z,1006.01
2017-11-27T07:52:44.111Z,1006.03
2017-11-27T07:53:45.520Z,1006.03
2017-11-27T07:54:46.934Z,1005.97
2017-11-27T07:55:48.362Z,1005.98
2017-11-27T07:56:49.771Z,1005.93
2017-11-27T07:57:52.107Z,1005.88
2017-11-27T07:58:52.579Z,1005.92
2017-11-27T07:59:53.995Z,1005.85
2017-11-27T08:00:55.423Z,1005.80
2017-11-27T08:01:56.836Z,1005.80
2017-11-27T08:02:59.193Z,1005.81
2017-11-27T08:04:00.610Z,1005.72
2017-11-27T08:05:02.015Z,1005.71
2017-11-27T08:06:03.433Z,1005.69
2017-11-27T08:07:04.840Z,1005.69
2017-11-27T08:08:06.258Z,1005.65
2017-11-27T08:09:07.670Z,1005.56
2017-11-27T08:10:09.079Z,1005.59
2017-11-27T08:11:10.489Z,1005.62
2017-11-27T08:12:11.908Z,1005.58
2017-11-27T08:13:13.326Z,1005.53
2017-11-27T08:14:14.739Z,1005.54
2017-11-27T08:15:16.165Z,1005.51
2017-11-27T08:16:17.589Z,1005.64
2017-11-27T08:17:18.990Z,1005.52
2017-11-27T08:18:20.401Z,1005.48
2017-11-27T08:19:21.809Z,1005.43
2017-11-27T08:20:23.226Z,1005.44
2017-11-27T08:21:24.637Z,1005.39
2017-11-27T08:22:26.056Z,1005.47
2017-11-27T08:23:27.462Z,1005.42
2017-11-27T08:24:28.881Z,1005.41
2017-11-27T08:25:30.289Z,1005.43
2017-11-27T08:26:31.699Z,1005.32
2017-11-27T08:27:33.163Z,1005.26
2017-11-27T08:28:34.567Z,1005.33
2017-11-27T08:29:35.982Z,1005.39
2017-11-27T08:30:38.306Z,1005.26
2017-11-27T08:31:39.722Z,1005.23
2017-11-27T08:32:41.139Z,1005.20
2017-11-27T08:33:42.556Z,1005.18
2017-11-27T08:34:43.961Z,1005.16
2017-11-27T08:35:45.372Z,1005.12
2017-11-27T08:36:46.777Z,1005.02
2017-11-27T08:37:48.191Z,1005.06
2017-11-27T08:38:49.595Z,1005.12
2017-11-27T08:39:51.158Z,1004.95
2017-11-27T08:40:52.569Z,1004.99
2017-11-27T08:41:53.980Z,1004.96
2017-11-27T08:42:55.395Z,1005.03
2017-11-27T08:43:56.815Z,1005.00
2017-11-27T08:44:58.221Z,1004.92
2017-11-27T08:45:59.642Z,1004.91
2017-11-27T08:47:01.086Z,1004.80
2017-11-27T08:48:02.492Z,1004.90
2017-11-27T08:49:03.909Z,1004.93
2017-11-27T08:50:05.319Z,1004.94
2017-11-27T08:51:06.693Z,1004.85
2017-11-27T08:52:08.106Z,1004.82
2017-11-27T08:53:09.519Z,1004.72
2017-11-27T08:54:10.926Z,1004.73
2017-11-27T08:55:12.338Z,1004.69
2017-11-27T08:56:13.763Z,1004.76
2017-11-27T08:57:15.182Z,1004.74
2017-11-27T08:58:16.598Z,1004.70
2017-11-27T08:59:18.035Z,1004.68
2017-11-27T09:00:19.453Z,1004.64
2017-11-27T09:01:20.860Z,1004.62
2017-11-27T09:02:22.282Z,1004.67
2017-11-27T09:03:23.687Z,1004.66
2017-11-27T09:04:25.095Z,1004.57
2017-11-27T09:05:26.500Z,1004.53
2017-11-27T09:06:27.915Z,1004.55
2017-11-27T09:07:29.331Z,1004.51
2017-11-27T09:08:30.735Z,1004.49
2017-11-27T09:09:32.151Z,1004.47
2017-11-27T09:10:33.563Z,1004.58
2017-11-27T09:11:34.979Z,1004.50
2017-11-27T09:12:36.398Z,1004.50
2017-11-27T09:13:37.820Z,1004.51
2017-11-27T09:14:39.233Z,1004.46
2017-11-27T09:15:40.644Z,1004.40
2017-11-27T09:16:42.061Z,1004.40
2017-11-27T09:17:43.480Z,1004.34
2017-11-27T09:18:44.895Z,1004.29
2017-11-27T09:19:46.308Z,1004.23
2017-11-27T09:20:47.725Z,1004.31
2017-11-27T09:21:49.140Z,1004.30
2017-11-27T09:22:50.555Z,1004.29
2017-11-27T09:23:51.971Z,1004.26
2017-11-27T09:24:54.297Z,1004.23
2017-11-27T09:25:55.709Z,1004.15
2017-11-27T09:26:57.123Z,1004.16
2017-11-27T09:27:58.539Z,1004.03
2017-11-27T09:28:59.939Z,1003.94
2017-11-27T09:30:01.359Z,1003.92
2017-11-27T09:31:02.772Z,1003.93
2017-11-27T09:32:04.187Z,1003.92
2017-11-27T09:33:05.592Z,1003.86
2017-11-27T09:34:07.000Z,1003.86
2017-11-27T09:35:08.413Z,1003.84
2017-11-27T09:36:09.833Z,1003.83
2017-11-27T09:37:11.255Z,1003.77
2017-11-27T09:38:12.661Z,1003.83
2017-11-27T09:39:14.083Z,1003.75
2017-11-27T09:40:15.495Z,1003.70
2017-11-27T09:41:16.905Z,1003.71
2017-11-27T09:42:18.313Z,1003.75
2017-11-27T09:43:19.731Z,1003.70
2017-11-27T09:44:21.140Z,1003.65
2017-11-27T09:45:22.553Z,1003.63
2017-11-27T09:46:23.971Z,1003.58
2017-11-27T09:47:25.392Z,1003.58
2017-11-27T09:48:26.805Z,1003.58
2017-11-27T09:49:28.218Z,1003.58
2017-11-27T09:50:29.636Z,1003.46
2017-11-27T09:51:31.043Z,1003.45
2017-11-27T09:52:32.457Z,1003.47
2017-11-27T09:53:33.874Z,1003.44
2017-11-27T09:54:35.347Z,1003.42
2017-11-27T09:55:36.758Z,1003.38
2017-11-27T09:56:38.172Z,1003.39
2017-11-27T09:57:39.598Z,1003.31
2017-11-27T09:58:41.009Z,1003.36
2017-11-27T09:59:42.430Z,1003.40
2017-11-27T10:00:43.851Z,1003.34
2017-11-27T10:01:45.339Z,1003.32
2017-11-27T10:02:46.753Z,1003.39
2017-11-27T10:03:48.168Z,1003.29
2017-11-27T10:04:49.589Z,1003.28
2017-11-27T10:05:50.994Z,1003.33
2017-11-27T10:06:52.402Z,1003.29
2017-11-27T10:07:53.818Z,1003.29
2017-11-27T10:08:55.281Z,1003.22
2017-11-27T10:09:56.705Z,1003.16
2017-11-27T10:10:58.118Z,1003.18
2017-11-27T10:11:59.535Z,1003.09
2017-11-27T10:13:00.944Z,1003.21
2017-11-27T10:14:02.354Z,1003.05
2017-11-27T10:15:03.760Z,1003.02
2017-11-27T10:16:05.179Z,1002.99
2017-11-27T10:17:06.593Z,1002.96
2017-11-27T10:18:08.006Z,1002.95
2017-11-27T10:19:09.421Z,1002.89
2017-11-27T10:20:10.836Z,1002.82
2017-11-27T10:21:12.251Z,1002.97
2017-11-27T10:22:13.679Z,1002.84
2017-11-27T10:23:15.101Z,1002.86
2017-11-27T10:24:16.512Z,1002.81
2017-11-27T10:25:17.930Z,1002.82
2017-11-27T10:26:19.355Z,1002.78
2017-11-27T10:27:21.249Z,1002.75
2017-11-27T10:28:22.664Z,1002.78
2017-11-27T10:29:24.084Z,1002.77
2017-11-27T10:30:25.501Z,1002.78
2017-11-27T10:31:26.913Z,1002.80
2017-11-27T10:32:28.332Z,1002.70
2017-11-27T10:33:31.139Z,1002.76
2017-11-27T10:34:31.107Z,1002.72
2017-11-27T10:35:32.517Z,1002.71
2017-11-27T10:36:34.657Z,1002.69
2017-11-27T10:37:36.063Z,1002.69
2017-11-27T10:38:37.484Z,1002.63
2017-11-27T10:39:38.906Z,1002.65
2017-11-27T10:40:40.324Z,1002.55
2017-11-27T10:41:41.739Z,1002.60
2017-11-27T10:42:43.150Z,1002.53
2017-11-27T10:43:44.564Z,1002.49
2017-11-27T10:44:45.984Z,1002.49
2017-11-27T10:45:47.412Z,1002.44
2017-11-27T10:46:48.832Z,1002.50
2017-11-27T10:47:50.262Z,1002.34
2017-11-27T10:48:51.678Z,1002.33
2017-11-27T10:49:53.091Z,1002.36
2017-11-27T10:50:54.507Z,1002.34
2017-11-27T10:51:55.917Z,1002.17
2017-11-27T10:52:57.329Z,1002.18
2017-11-27T10:53:58.765Z,1002.24
2017-11-27T10:55:00.171Z,1002.23
2017-11-27T10:56:01.593Z,1002.14
2017-11-27T10:57:03.017Z,1002.10
2017-11-27T10:58:04.440Z,1002.07
2017-11-27T10:59:05.856Z,1002.10
2017-11-27T11:00:07.271Z,1001.97
2017-11-27T11:01:08.689Z,1001.98
2017-11-27T11:02:10.100Z,1001.98
2017-11-27T11:03:11.514Z,1001.88
2017-11-27T11:04:12.923Z,1001.88
2017-11-27T11:05:14.336Z,1001.74
2017-11-27T11:06:15.784Z,1001.84
2017-11-27T11:07:17.216Z,1001.79
2017-11-27T11:08:18.639Z,1001.71
2017-11-27T11:09:20.048Z,1001.68
2017-11-27T11:10:21.460Z,1001.67
2017-11-27T11:11:22.878Z,1001.59
2017-11-27T11:12:24.292Z,1001.68
2017-11-27T11:13:25.711Z,1001.62
2017-11-27T11:14:27.125Z,1001.53
2017-11-27T11:15:28.540Z,1001.50
2017-11-27T11:16:29.956Z,1001.44
2017-11-27T11:17:31.374Z,1001.47
2017-11-27T11:18:32.788Z,1001.40
2017-11-27T11:19:34.209Z,1001.41
2017-11-27T11:20:35.613Z,1001.30
2017-11-27T11:21:37.030Z,1001.27
2017-11-27T11:22:38.439Z,1001.25
2017-11-27T11:23:39.852Z,1001.16
2017-11-27T11:24:41.273Z,1001.11
2017-11-27T11:25:42.692Z,1001.09
2017-11-27T11:26:44.109Z,1000.95
2017-11-27T11:27:45.528Z,1001.01
2017-11-27T11:28:46.951Z,1000.89
2017-11-27T11:29:48.362Z,1000.81
2017-11-27T11:30:49.781Z,1000.92
2017-11-27T11:31:51.207Z,1000.81
2017-11-27T11:32:52.616Z,1000.83
2017-11-27T11:33:54.041Z,1000.77
2017-11-27T11:34:55.451Z,1000.73
2017-11-27T11:35:56.865Z,1000.72
2017-11-27T11:36:58.284Z,1000.76
2017-11-27T11:37:59.709Z,1000.72
2017-11-27T11:39:01.119Z,1000.72
2017-11-27T11:40:02.532Z,1000.69
2017-11-27T11:41:03.949Z,1000.71
2017-11-27T11:42:05.364Z,1000.64
2017-11-27T11:43:06.786Z,1000.64
2017-11-27T11:44:08.204Z,1000.46
2017-11-27T11:45:09.615Z,1000.66
2017-11-27T11:46:11.036Z,1000.49
2017-11-27T11:47:12.445Z,1000.58
2017-11-27T11:48:13.864Z,1000.44
2017-11-27T11:49:15.280Z,1000.47
2017-11-27T11:50:16.698Z,1000.43
2017-11-27T11:51:18.116Z,1000.49
2017-11-27T11:52:19.533Z,1000.44
2017-11-27T11:53:20.959Z,1000.50
2017-11-27T11:54:22.369Z,1000.38
2017-11-27T11:55:23.789Z,1000.38
2017-11-27T11:56:25.209Z,1000.42
2017-11-27T11:57:26.624Z,1000.25
2017-11-27T11:58:28.060Z,1000.36
2017-11-27T11:59:29.472Z,1000.50
2017-11-27T12:00:30.892Z,1000.35
2017-11-27T12:01:32.302Z,1000.28
2017-11-27T12:02:33.727Z,1000.15
2017-11-27T12:03:35.143Z,1000.18
2017-11-27T12:04:37.558Z,1000.09
2017-11-27T12:05:38.967Z,1000.05
2017-11-27T12:06:40.380Z,1000.24
2017-11-27T12:07:41.785Z,1000.16
2017-11-27T12:08:43.211Z,1000.13
2017-11-27T12:09:44.628Z,1000.19
2017-11-27T12:10:46.109Z,1000.21
2017-11-27T12:11:47.533Z,1000.20
2017-11-27T12:12:48.948Z,1000.16
2017-11-27T12:13:50.363Z,1000.13
2017-11-27T12:14:51.771Z,1000.08
2017-11-27T12:15:53.191Z,1000.10
2017-11-27T12:16:54.600Z,999.96
2017-11-27T12:17:56.014Z,1000.04
2017-11-27T12:18:57.426Z,999.89
2017-11-27T12:19:58.853Z,1000.00
2017-11-27T12:21:00.268Z,999.94
2017-11-27T12:22:01.683Z,999.82
2017-11-27T12:23:03.098Z,999.89